sensor_id;sensor_type;location;lat;lon;timestamp;pressure;altitude;pressure_sealevel;temperature;humidity
32735;BME280;19112;51.076;3.706;2023-02-13T00:02:16;103577.72;;;11.83;61.79
32735;BME280;19112;51.076;3.706;2023-02-13T00:04:42;103456.66;;;11.23;62.07
32735;BME280;19112;51.076;3.706;2023-02-13T00:07:09;103490.06;;;11.36;62.08
32735;BME280;19112;51.076;3.706;2023-02-13T00:09:38;103552.44;;;11.73;62.14
32735;BME280;19112;51.076;3.706;2023-02-13T00:12:06;103409.44;;;10.88;62.27
32735;BME280;19112;51.076;3.706;2023-02-13T00:14:38;103473.81;;;11.18;62.65
32735;BME280;19112;51.076;3.706;2023-02-13T00:17:05;103567.00;;;11.45;62.99
32735;BME280;19112;51.076;3.706;2023-02-13T00:19:31;103559.00;;;11.43;63.40
32735;BME280;19112;51.076;3.706;2023-02-13T00:21:57;103297.09;;;10.02;63.36
32735;BME280;19112;51.076;3.706;2023-02-13T00:24:23;103377.72;;;10.49;63.35
32735;BME280;19112;51.076;3.706;2023-02-13T00:26:48;103544.03;;;11.42;63.39
32735;BME280;19112;51.076;3.706;2023-02-13T00:29:14;103251.97;;;9.72;63.56
32735;BME280;19112;51.076;3.706;2023-02-13T00:31:40;103466.34;;;10.87;63.87
32735;BME280;19112;51.076;3.706;2023-02-13T00:34:06;103547.22;;;11.38;63.70
32735;BME280;19112;51.076;3.706;2023-02-13T00:36:32;103551.78;;;11.29;64.18
32735;BME280;19112;51.076;3.706;2023-02-13T00:38:58;103433.66;;;10.72;63.96
32735;BME280;19112;51.076;3.706;2023-02-13T00:41:24;103428.53;;;10.50;64.28
32735;BME280;19112;51.076;3.706;2023-02-13T00:43:50;103540.38;;;11.17;64.52
32735;BME280;19112;51.076;3.706;2023-02-13T00:46:16;103546.09;;;11.23;64.61
32735;BME280;19112;51.076;3.706;2023-02-13T00:48:43;102834.09;;;7.35;64.19
32735;BME280;19112;51.076;3.706;2023-02-13T00:51:09;103543.69;;;11.26;64.70
32735;BME280;19112;51.076;3.706;2023-02-13T00:53:37;103562.78;;;11.23;64.62
32735;BME280;19112;51.076;3.706;2023-02-13T00:56:04;103543.00;;;11.17;65.14
32735;BME280;19112;51.076;3.706;2023-02-13T00:58:31;103410.81;;;10.36;65.57
32735;BME280;19112;51.076;3.706;2023-02-13T01:00:57;103469.09;;;10.65;65.64
32735;BME280;19112;51.076;3.706;2023-02-13T01:03:25;103543.25;;;11.08;65.70
32735;BME280;19112;51.076;3.706;2023-02-13T01:05:51;103461.66;;;10.71;65.39
32735;BME280;19112;51.076;3.706;2023-02-13T01:08:19;103413.88;;;10.54;65.34
32735;BME280;19112;51.076;3.706;2023-02-13T01:10:46;103535.91;;;11.27;65.28
32735;BME280;19112;51.076;3.706;2023-02-13T01:13:15;103275.25;;;9.79;65.18
32735;BME280;19112;51.076;3.706;2023-02-13T01:15:41;103236.34;;;9.62;64.95
32735;BME280;19112;51.076;3.706;2023-02-13T01:18:08;103227.22;;;9.68;64.83
32735;BME280;19112;51.076;3.706;2023-02-13T01:20:34;103273.78;;;9.94;64.76
32735;BME280;19112;51.076;3.706;2023-02-13T01:23:00;103454.06;;;11.11;64.41
32735;BME280;19112;51.076;3.706;2023-02-13T01:25:25;103313.09;;;10.28;64.28
32735;BME280;19112;51.076;3.706;2023-02-13T01:27:52;103536.34;;;11.57;64.14
32735;BME280;19112;51.076;3.706;2023-02-13T01:30:19;103311.56;;;10.20;64.29
32735;BME280;19112;51.076;3.706;2023-02-13T01:32:46;103547.22;;;11.38;64.55
32735;BME280;19112;51.076;3.706;2023-02-13T01:35:13;103324.69;;;10.20;64.75
32735;BME280;19112;51.076;3.706;2023-02-13T01:37:40;103328.22;;;10.20;64.76
32735;BME280;19112;51.076;3.706;2023-02-13T01:40:11;103447.13;;;10.88;64.63
32735;BME280;19112;51.076;3.706;2023-02-13T01:42:37;103430.00;;;10.82;64.59
32735;BME280;19112;51.076;3.706;2023-02-13T01:45:28;103522.28;;;11.33;64.57
32735;BME280;19112;51.076;3.706;2023-02-13T01:48:03;103531.34;;;11.25;64.92
32735;BME280;19112;51.076;3.706;2023-02-13T01:53:17;103468.97;;;10.87;65.29
32735;BME280;19112;51.076;3.706;2023-02-13T01:56:05;103395.72;;;10.33;65.23
32735;BME280;19112;51.076;3.706;2023-02-13T01:58:36;103454.44;;;10.57;65.62
32735;BME280;19112;51.076;3.706;2023-02-13T02:01:04;103519.13;;;10.90;65.66
32735;BME280;19112;51.076;3.706;2023-02-13T02:03:52;103404.25;;;10.07;65.97
32735;BME280;19112;51.076;3.706;2023-02-13T02:06:28;103519.13;;;10.67;66.10
32735;BME280;19112;51.076;3.706;2023-02-13T02:09:01;103078.81;;;8.11;65.97
32735;BME280;19112;51.076;3.706;2023-02-13T02:12:09;103474.03;;;10.27;66.57
32735;BME280;19112;51.076;3.706;2023-02-13T02:14:39;103467.81;;;10.15;67.05
32735;BME280;19112;51.076;3.706;2023-02-13T02:17:06;103228.44;;;8.71;67.39
32735;BME280;19112;51.076;3.706;2023-02-13T02:26:17;103500.00;;;9.90;68.48
32735;BME280;19112;51.076;3.706;2023-02-13T02:35:06;103500.72;;;9.66;69.07
32735;BME280;19112;51.076;3.706;2023-02-13T02:49:40;103497.88;;;9.31;70.06
32735;BME280;19112;51.076;3.706;2023-02-13T02:58:23;103500.38;;;9.29;70.22
32735;BME280;19112;51.076;3.706;2023-02-13T03:01:15;103436.88;;;8.89;69.76
32735;BME280;19112;51.076;3.706;2023-02-13T03:04:02;103333.59;;;8.33;69.87
32735;BME280;19112;51.076;3.706;2023-02-13T03:06:56;103413.00;;;8.64;70.07
32735;BME280;19112;51.076;3.706;2023-02-13T03:09:39;103507.91;;;9.14;70.54
32735;BME280;19112;51.076;3.706;2023-02-13T03:12:35;103417.31;;;8.64;70.13
32735;BME280;19112;51.076;3.706;2023-02-13T03:15:23;103433.03;;;8.64;70.64
32735;BME280;19112;51.076;3.706;2023-02-13T03:17:50;103478.53;;;8.86;70.33
32735;BME280;19112;51.076;3.706;2023-02-13T03:20:41;103503.63;;;8.95;70.76
32735;BME280;19112;51.076;3.706;2023-02-13T03:23:52;103418.91;;;8.52;70.40
32735;BME280;19112;51.076;3.706;2023-02-13T03:27:01;103498.03;;;8.90;70.49
32735;BME280;19112;51.076;3.706;2023-02-13T03:29:52;103492.03;;;8.81;70.76
32735;BME280;19112;51.076;3.706;2023-02-13T03:32:46;103505.53;;;8.75;71.20
32735;BME280;19112;51.076;3.706;2023-02-13T03:35:55;103384.66;;;8.08;71.45
32735;BME280;19112;51.076;3.706;2023-02-13T03:42:28;103367.94;;;7.75;71.81
32735;BME280;19112;51.076;3.706;2023-02-13T03:45:42;103319.34;;;7.47;72.16
32735;BME280;19112;51.076;3.706;2023-02-13T03:48:31;103468.50;;;8.30;71.94
32735;BME280;19112;51.076;3.706;2023-02-13T03:52:02;103355.78;;;7.66;72.07
32735;BME280;19112;51.076;3.706;2023-02-13T03:54:42;103420.66;;;7.90;72.32
32735;BME280;19112;51.076;3.706;2023-02-13T03:57:28;103502.81;;;8.33;72.25
32735;BME280;19112;51.076;3.706;2023-02-13T04:00:16;103259.31;;;6.87;72.05
32735;BME280;19112;51.076;3.706;2023-02-13T04:02:57;103410.72;;;7.76;72.15
32735;BME280;19112;51.076;3.706;2023-02-13T04:05:28;103519.69;;;8.26;72.44
32735;BME280;19112;51.076;3.706;2023-02-13T04:07:55;103172.66;;;6.32;72.06
32735;BME280;19112;51.076;3.706;2023-02-13T04:10:22;103378.16;;;7.52;72.04
32735;BME280;19112;51.076;3.706;2023-02-13T04:13:02;103427.59;;;7.90;70.76
32735;BME280;19112;51.076;3.706;2023-02-13T04:18:31;102887.31;;;4.69;69.93
32735;BME280;19112;51.076;3.706;2023-02-13T04:21:05;103256.25;;;6.62;70.41
32735;BME280;19112;51.076;3.706;2023-02-13T04:23:31;103354.97;;;7.26;69.87
32735;BME280;19112;51.076;3.706;2023-02-13T04:26:01;103458.31;;;7.82;70.25
32735;BME280;19112;51.076;3.706;2023-02-13T04:28:28;103298.88;;;6.92;70.17
32735;BME280;19112;51.076;3.706;2023-02-13T04:30:54;103164.53;;;6.08;69.89
32735;BME280;19112;51.076;3.706;2023-02-13T04:33:20;103403.44;;;7.22;71.08
32735;BME280;19112;51.076;3.706;2023-02-13T04:35:46;103087.19;;;5.40;71.30
32735;BME280;19112;51.076;3.706;2023-02-13T04:38:12;103509.28;;;7.77;71.58
32735;BME280;19112;51.076;3.706;2023-02-13T04:40:38;103507.22;;;7.73;71.44
32735;BME280;19112;51.076;3.706;2023-02-13T04:43:03;103327.72;;;6.54;71.99
32735;BME280;19112;51.076;3.706;2023-02-13T04:45:29;103305.03;;;6.53;71.78
32735;BME280;19112;51.076;3.706;2023-02-13T04:47:56;103263.56;;;6.27;71.01
32735;BME280;19112;51.076;3.706;2023-02-13T04:50:23;103374.34;;;6.60;71.64
32735;BME280;19112;51.076;3.706;2023-02-13T04:52:54;103416.25;;;7.19;71.54
32735;BME280;19112;51.076;3.706;2023-02-13T04:55:21;103522.88;;;7.63;71.88
32735;BME280;19112;51.076;3.706;2023-02-13T04:57:47;103507.56;;;7.57;72.21
32735;BME280;19112;51.076;3.706;2023-02-13T05:00:14;103426.69;;;7.19;72.16
32735;BME280;19112;51.076;3.706;2023-02-13T05:02:39;103338.34;;;6.66;72.58
32735;BME280;19112;51.076;3.706;2023-02-13T05:05:05;103421.03;;;7.04;72.68
32735;BME280;19112;51.076;3.706;2023-02-13T05:07:31;103501.50;;;7.48;72.82
32735;BME280;19112;51.076;3.706;2023-02-13T05:09:57;103519.69;;;7.46;72.98
32735;BME280;19112;51.076;3.706;2023-02-13T05:12:23;103391.31;;;6.83;72.89
32735;BME280;19112;51.076;3.706;2023-02-13T05:14:49;103414.47;;;6.99;72.62
32735;BME280;19112;51.076;3.706;2023-02-13T05:17:14;103434.88;;;7.03;72.92
32735;BME280;19112;51.076;3.706;2023-02-13T05:19:40;103497.44;;;7.41;72.82
32735;BME280;19112;51.076;3.706;2023-02-13T05:22:07;103293.94;;;6.26;72.15
32735;BME280;19112;51.076;3.706;2023-02-13T05:24:52;103473.72;;;7.29;71.76
32735;BME280;19112;51.076;3.706;2023-02-13T05:27:18;103399.63;;;6.79;72.43
32735;BME280;19112;51.076;3.706;2023-02-13T05:29:44;103417.28;;;6.82;73.12
32735;BME280;19112;51.076;3.706;2023-02-13T05:32:10;102953.75;;;4.28;72.45
32735;BME280;19112;51.076;3.706;2023-02-13T05:34:35;103476.00;;;7.06;71.70
32735;BME280;19112;51.076;3.706;2023-02-13T05:37:02;103503.44;;;7.30;72.35
32735;BME280;19112;51.076;3.706;2023-02-13T05:39:28;103350.25;;;6.43;72.66
32735;BME280;19112;51.076;3.706;2023-02-13T05:41:54;102836.56;;;3.51;72.51
32735;BME280;19112;51.076;3.706;2023-02-13T05:44:20;103480.59;;;7.08;73.01
32735;BME280;19112;51.076;3.706;2023-02-13T05:46:46;103442.88;;;6.86;73.28
32735;BME280;19112;51.076;3.706;2023-02-13T05:49:14;103496.16;;;7.17;73.50
32735;BME280;19112;51.076;3.706;2023-02-13T05:51:41;103496.53;;;7.12;73.72
32735;BME280;19112;51.076;3.706;2023-02-13T05:54:07;103401.59;;;6.53;73.41
32735;BME280;19112;51.076;3.706;2023-02-13T05:56:33;103209.88;;;5.62;73.41
32735;BME280;19112;51.076;3.706;2023-02-13T05:58:59;103392.00;;;6.62;73.13
32735;BME280;19112;51.076;3.706;2023-02-13T06:01:25;103499.69;;;7.18;73.83
32735;BME280;19112;51.076;3.706;2023-02-13T06:03:51;103349.56;;;6.36;73.92
32735;BME280;19112;51.076;3.706;2023-02-13T06:06:17;102637.13;;;2.44;73.13
32735;BME280;19112;51.076;3.706;2023-02-13T06:08:43;102900.19;;;3.92;73.89
32735;BME280;19112;51.076;3.706;2023-02-13T06:11:10;103351.16;;;6.44;74.06
32735;BME280;19112;51.076;3.706;2023-02-13T06:13:35;103413.88;;;6.83;74.40
32735;BME280;19112;51.076;3.706;2023-02-13T06:16:09;103420.84;;;6.93;74.15
32735;BME280;19112;51.076;3.706;2023-02-13T06:18:35;103446.03;;;6.92;74.76
32735;BME280;19112;51.076;3.706;2023-02-13T06:21:02;103500.44;;;7.35;75.28
32735;BME280;19112;51.076;3.706;2023-02-13T06:23:28;103237.31;;;5.96;74.85
32735;BME280;19112;51.076;3.706;2023-02-13T06:25:54;103519.84;;;7.58;74.14
32735;BME280;19112;51.076;3.706;2023-02-13T06:28:20;103502.84;;;7.53;74.98
32735;BME280;19112;51.076;3.706;2023-02-13T06:30:47;103438.44;;;7.14;74.84
32735;BME280;19112;51.076;3.706;2023-02-13T06:33:14;103325.84;;;6.43;74.78
32735;BME280;19112;51.076;3.706;2023-02-13T06:35:39;103326.78;;;6.72;74.40
32735;BME280;19112;51.076;3.706;2023-02-13T06:38:05;103403.00;;;7.07;74.83
32735;BME280;19112;51.076;3.706;2023-02-13T06:40:31;103421.44;;;7.09;75.42
32735;BME280;19112;51.076;3.706;2023-02-13T06:42:57;103501.22;;;7.45;75.71
32735;BME280;19112;51.076;3.706;2023-02-13T06:45:22;103415.13;;;7.07;75.23
32735;BME280;19112;51.076;3.706;2023-02-13T06:47:48;103226.41;;;6.00;75.19
32735;BME280;19112;51.076;3.706;2023-02-13T06:50:16;103432.47;;;7.25;75.25
32735;BME280;19112;51.076;3.706;2023-02-13T06:52:50;103360.06;;;6.75;75.15
32735;BME280;19112;51.076;3.706;2023-02-13T06:55:16;103127.59;;;5.45;75.30
32735;BME280;19112;51.076;3.706;2023-02-13T06:57:44;103177.81;;;5.63;76.04
32735;BME280;19112;51.076;3.706;2023-02-13T07:00:11;103349.31;;;6.62;75.78
32735;BME280;19112;51.076;3.706;2023-02-13T07:02:42;103401.38;;;6.89;75.89
32735;BME280;19112;51.076;3.706;2023-02-13T07:05:09;103292.13;;;6.25;76.54
32735;BME280;19112;51.076;3.706;2023-02-13T07:07:37;103261.50;;;6.04;76.57
32735;BME280;19112;51.076;3.706;2023-02-13T07:10:06;103533.28;;;7.52;76.54
32735;BME280;19112;51.076;3.706;2023-02-13T07:12:34;103430.41;;;7.02;76.44
32735;BME280;19112;51.076;3.706;2023-02-13T07:15:04;103527.16;;;7.52;76.08
32735;BME280;19112;51.076;3.706;2023-02-13T07:17:30;103169.69;;;5.50;75.82
32735;BME280;19112;51.076;3.706;2023-02-13T07:19:57;103456.72;;;7.14;75.56
32735;BME280;19112;51.076;3.706;2023-02-13T07:22:22;103528.31;;;7.55;75.53
32735;BME280;19112;51.076;3.706;2023-02-13T07:24:48;103195.50;;;5.57;75.46
32735;BME280;19112;51.076;3.706;2023-02-13T07:27:14;103536.28;;;7.47;75.66
32735;BME280;19112;51.076;3.706;2023-02-13T07:29:40;103538.03;;;7.56;75.16
32735;BME280;19112;51.076;3.706;2023-02-13T07:32:05;103540.22;;;7.52;75.58
32735;BME280;19112;51.076;3.706;2023-02-13T07:34:32;103349.69;;;6.37;75.45
32735;BME280;19112;51.076;3.706;2023-02-13T07:36:58;103152.34;;;5.32;74.99
32735;BME280;19112;51.076;3.706;2023-02-13T07:39:23;103524.34;;;7.40;75.39
32735;BME280;19112;51.076;3.706;2023-02-13T07:41:50;103276.03;;;5.92;75.38
32735;BME280;19112;51.076;3.706;2023-02-13T07:44:17;103462.09;;;6.97;75.61
32735;BME280;19112;51.076;3.706;2023-02-13T07:46:42;103325.06;;;6.15;75.34
32735;BME280;19112;51.076;3.706;2023-02-13T07:49:08;103405.47;;;6.67;75.56
32735;BME280;19112;51.076;3.706;2023-02-13T07:51:34;103545.94;;;7.48;74.97
32735;BME280;19112;51.076;3.706;2023-02-13T07:54:01;103296.88;;;6.11;74.98
32735;BME280;19112;51.076;3.706;2023-02-13T07:56:27;103388.66;;;6.54;75.17
32735;BME280;19112;51.076;3.706;2023-02-13T07:58:53;103547.78;;;7.49;75.38
32735;BME280;19112;51.076;3.706;2023-02-13T08:01:19;103452.88;;;7.00;74.63
32735;BME280;19112;51.076;3.706;2023-02-13T08:03:48;103555.38;;;7.56;74.43
32735;BME280;19112;51.076;3.706;2023-02-13T08:06:18;103222.59;;;5.78;74.41
32735;BME280;19112;51.076;3.706;2023-02-13T08:08:44;103548.97;;;7.52;74.32
32735;BME280;19112;51.076;3.706;2023-02-13T08:11:42;103427.41;;;6.98;74.20
32735;BME280;19112;51.076;3.706;2023-02-13T08:14:25;103205.28;;;5.78;73.83
32735;BME280;19112;51.076;3.706;2023-02-13T08:16:53;103532.13;;;7.59;74.13
32735;BME280;19112;51.076;3.706;2023-02-13T08:19:19;103396.72;;;6.76;73.88
32735;BME280;19112;51.076;3.706;2023-02-13T08:21:45;103236.91;;;5.73;73.72
32735;BME280;19112;51.076;3.706;2023-02-13T08:24:11;103049.09;;;4.65;73.58
32735;BME280;19112;51.076;3.706;2023-02-13T08:26:38;103491.97;;;7.09;74.38
32735;BME280;19112;51.076;3.706;2023-02-13T08:29:05;103319.28;;;6.09;74.38
32735;BME280;19112;51.076;3.706;2023-02-13T08:31:31;103417.00;;;6.60;74.29
32735;BME280;19112;51.076;3.706;2023-02-13T08:33:57;103318.16;;;6.15;74.47
32735;BME280;19112;51.076;3.706;2023-02-13T08:36:23;103459.00;;;7.01;74.63
32735;BME280;19112;51.076;3.706;2023-02-13T08:38:49;103292.69;;;5.75;74.24
32735;BME280;19112;51.076;3.706;2023-02-13T08:41:15;103549.91;;;7.53;74.30
32735;BME280;19112;51.076;3.706;2023-02-13T08:43:43;103501.47;;;7.38;74.50
32735;BME280;19112;51.076;3.706;2023-02-13T08:46:10;103509.97;;;7.35;74.22
32735;BME280;19112;51.076;3.706;2023-02-13T08:48:36;103259.44;;;6.10;74.45
32735;BME280;19112;51.076;3.706;2023-02-13T08:51:10;103496.28;;;7.48;73.88
32735;BME280;19112;51.076;3.706;2023-02-13T08:53:37;103551.53;;;7.81;74.26
32735;BME280;19112;51.076;3.706;2023-02-13T08:56:04;103393.34;;;7.06;74.24
32735;BME280;19112;51.076;3.706;2023-02-13T08:58:30;103368.09;;;6.97;73.92
32735;BME280;19112;51.076;3.706;2023-02-13T09:00:56;103306.09;;;6.65;74.33
32735;BME280;19112;51.076;3.706;2023-02-13T09:03:22;103422.06;;;7.46;73.97
32735;BME280;19112;51.076;3.706;2023-02-13T09:05:48;103546.91;;;8.18;74.25
32735;BME280;19112;51.076;3.706;2023-02-13T09:08:15;103547.59;;;8.26;74.09
32735;BME280;19112;51.076;3.706;2023-02-13T09:10:41;103541.84;;;8.40;74.30
32735;BME280;19112;51.076;3.706;2023-02-13T09:13:10;103277.22;;;6.93;74.00
32735;BME280;19112;51.076;3.706;2023-02-13T09:15:40;103275.38;;;7.02;73.33
32735;BME280;19112;51.076;3.706;2023-02-13T09:18:06;103334.34;;;7.39;73.99
32735;BME280;19112;51.076;3.706;2023-02-13T09:20:32;103490.00;;;8.26;73.95
32735;BME280;19112;51.076;3.706;2023-02-13T09:22:58;103427.44;;;7.98;74.11
32735;BME280;19112;51.076;3.706;2023-02-13T09:25:24;103544.84;;;8.65;73.75
32735;BME280;19112;51.076;3.706;2023-02-13T09:27:50;103547.97;;;8.71;74.06
32735;BME280;19112;51.076;3.706;2023-02-13T09:30:16;103556.84;;;8.83;73.71
32735;BME280;19112;51.076;3.706;2023-02-13T09:32:50;103217.28;;;7.04;73.73
32735;BME280;19112;51.076;3.706;2023-02-13T09:35:17;103488.16;;;8.55;73.46
32735;BME280;19112;51.076;3.706;2023-02-13T09:37:42;103406.66;;;8.10;73.37
32735;BME280;19112;51.076;3.706;2023-02-13T09:40:35;103479.09;;;8.72;73.21
32735;BME280;19112;51.076;3.706;2023-02-13T09:43:12;103542.28;;;9.07;73.43
32735;BME280;19112;51.076;3.706;2023-02-13T09:45:39;103373.94;;;8.15;73.17
32735;BME280;19112;51.076;3.706;2023-02-13T09:48:07;103492.13;;;8.92;73.17
32735;BME280;19112;51.076;3.706;2023-02-13T09:50:38;103109.31;;;6.94;72.74
32735;BME280;19112;51.076;3.706;2023-02-13T09:53:04;103554.19;;;9.46;72.80
32735;BME280;19112;51.076;3.706;2023-02-13T09:55:42;103271.63;;;8.12;72.32
32735;BME280;19112;51.076;3.706;2023-02-13T09:58:40;103536.97;;;9.60;72.03
32735;BME280;19112;51.076;3.706;2023-02-13T10:01:29;103357.09;;;8.64;71.73
32735;BME280;19112;51.076;3.706;2023-02-13T10:04:24;103283.34;;;8.37;71.58
32735;BME280;19112;51.076;3.706;2023-02-13T10:07:35;103447.53;;;9.35;71.57
32735;BME280;19112;51.076;3.706;2023-02-13T10:10:26;103533.53;;;10.05;70.97
32735;BME280;19112;51.076;3.706;2023-02-13T10:16:08;103288.94;;;8.96;69.92
32735;BME280;19112;51.076;3.706;2023-02-13T10:19:20;103261.84;;;8.96;69.71
32735;BME280;19112;51.076;3.706;2023-02-13T10:22:18;103531.63;;;10.47;69.49
32735;BME280;19112;51.076;3.706;2023-02-13T10:24:59;103521.72;;;10.55;69.54
32735;BME280;19112;51.076;3.706;2023-02-13T10:28:08;103446.75;;;10.25;69.12
32735;BME280;19112;51.076;3.706;2023-02-13T10:31:00;103352.59;;;9.84;68.72
32735;BME280;19112;51.076;3.706;2023-02-13T10:33:32;103518.66;;;10.72;68.52
32735;BME280;19112;51.076;3.706;2023-02-13T10:38:42;103363.91;;;9.83;68.75
32735;BME280;19112;51.076;3.706;2023-02-13T10:44:21;103521.03;;;10.81;68.29
32735;BME280;19112;51.076;3.706;2023-02-13T10:47:38;103512.59;;;10.97;68.10
32735;BME280;19112;51.076;3.706;2023-02-13T10:56:11;103509.75;;;10.94;68.17
32735;BME280;19112;51.076;3.706;2023-02-13T10:59:06;103447.91;;;10.75;67.99
32735;BME280;19112;51.076;3.706;2023-02-13T11:01:55;103242.41;;;9.61;67.92
32735;BME280;19112;51.076;3.706;2023-02-13T11:04:21;103347.00;;;10.25;67.77
32735;BME280;19112;51.076;3.706;2023-02-13T11:07:02;103196.78;;;9.59;67.52
32735;BME280;19112;51.076;3.706;2023-02-13T11:09:35;103502.88;;;11.31;67.21
32735;BME280;19112;51.076;3.706;2023-02-13T11:12:28;103406.53;;;10.96;66.74
32735;BME280;19112;51.076;3.706;2023-02-13T11:15:00;103407.22;;;11.06;66.71
32735;BME280;19112;51.076;3.706;2023-02-13T11:17:31;103470.22;;;11.52;66.33
32735;BME280;19112;51.076;3.706;2023-02-13T11:20:02;103463.72;;;11.47;66.04
32735;BME280;19112;51.076;3.706;2023-02-13T11:22:48;103322.41;;;10.71;65.66
32735;BME280;19112;51.076;3.706;2023-02-13T11:25:24;103422.63;;;11.24;66.08
32735;BME280;19112;51.076;3.706;2023-02-13T11:28:14;103207.03;;;10.03;65.84
32735;BME280;19112;51.076;3.706;2023-02-13T11:30:42;103258.72;;;10.51;65.50
32735;BME280;19112;51.076;3.706;2023-02-13T11:33:22;103488.75;;;11.91;65.57
32735;BME280;19112;51.076;3.706;2023-02-13T11:35:49;103402.94;;;11.56;64.98
32735;BME280;19112;51.076;3.706;2023-02-13T11:40:43;103331.09;;;11.32;64.41
32735;BME280;19112;51.076;3.706;2023-02-13T11:46:24;103470.19;;;12.14;64.20
32735;BME280;19112;51.076;3.706;2023-02-13T11:49:05;103250.78;;;10.99;64.22
32735;BME280;19112;51.076;3.706;2023-02-13T11:52:09;103437.09;;;12.18;64.00
32735;BME280;19112;51.076;3.706;2023-02-13T11:54:45;103419.31;;;12.02;63.95
32735;BME280;19112;51.076;3.706;2023-02-13T11:57:23;103228.94;;;11.00;63.31
32735;BME280;19112;51.076;3.706;2023-02-13T11:59:52;103298.66;;;11.45;63.55
32735;BME280;19112;51.076;3.706;2023-02-13T12:04:50;103164.69;;;10.58;63.65
32735;BME280;19112;51.076;3.706;2023-02-13T12:07:31;103454.75;;;12.45;63.69
32735;BME280;19112;51.076;3.706;2023-02-13T12:10:23;103450.94;;;12.53;63.43
32735;BME280;19112;51.076;3.706;2023-02-13T12:13:19;103446.16;;;12.61;62.72
32735;BME280;19112;51.076;3.706;2023-02-13T12:15:46;103361.13;;;12.11;63.18
32735;BME280;19112;51.076;3.706;2023-02-13T12:18:30;103171.03;;;11.12;63.09
32735;BME280;19112;51.076;3.706;2023-02-13T12:23:56;103366.59;;;12.27;62.83
32735;BME280;19112;51.076;3.706;2023-02-13T12:26:40;103325.47;;;12.16;62.54
32735;BME280;19112;51.076;3.706;2023-02-13T12:32:18;103129.13;;;11.01;62.39
32735;BME280;19112;51.076;3.706;2023-02-13T12:41:19;103422.97;;;12.69;62.73
32735;BME280;19112;51.076;3.706;2023-02-13T12:52:58;103413.44;;;12.84;62.70
32735;BME280;19112;51.076;3.706;2023-02-13T12:56:31;103417.19;;;12.74;62.64
32735;BME280;19112;51.076;3.706;2023-02-13T13:10:02;103405.25;;;13.07;61.54
32735;BME280;19112;51.076;3.706;2023-02-13T13:16:24;103401.81;;;13.22;60.98
32735;BME280;19112;51.076;3.706;2023-02-13T13:22:00;103395.47;;;13.20;60.89
32735;BME280;19112;51.076;3.706;2023-02-13T13:24:33;103397.09;;;13.31;60.54
32735;BME280;19112;51.076;3.706;2023-02-13T13:27:03;103364.66;;;13.19;60.30
32735;BME280;19112;51.076;3.706;2023-02-13T13:29:53;103297.81;;;12.77;60.04
32735;BME280;19112;51.076;3.706;2023-02-13T13:32:21;103126.78;;;11.84;60.63
32735;BME280;19112;51.076;3.706;2023-02-13T13:34:48;103290.94;;;12.79;60.65
32735;BME280;19112;51.076;3.706;2023-02-13T13:37:34;103373.94;;;13.40;60.64
32735;BME280;19112;51.076;3.706;2023-02-13T13:43:24;103349.19;;;13.53;58.88
32735;BME280;19112;51.076;3.706;2023-02-13T13:49:23;103364.59;;;13.45;59.88
32735;BME280;19112;51.076;3.706;2023-02-13T13:51:51;103256.84;;;12.82;60.05
32735;BME280;19112;51.076;3.706;2023-02-13T13:54:22;103250.66;;;12.81;60.28
32735;BME280;19112;51.076;3.706;2023-02-13T14:05:25;103355.84;;;13.46;59.83
32735;BME280;19112;51.076;3.706;2023-02-13T14:08:00;103109.53;;;12.02;60.27
32735;BME280;19112;51.076;3.706;2023-02-13T14:20:51;103233.88;;;12.94;59.62
32735;BME280;19112;51.076;3.706;2023-02-13T14:31:39;103117.28;;;12.27;58.89
32735;BME280;19112;51.076;3.706;2023-02-13T14:37:14;103332.03;;;13.59;59.65
32735;BME280;19112;51.076;3.706;2023-02-13T14:42:45;103147.06;;;12.54;59.11
32735;BME280;19112;51.076;3.706;2023-02-13T14:45:17;103109.28;;;12.26;58.59
32735;BME280;19112;51.076;3.706;2023-02-13T14:47:52;103131.03;;;12.79;58.23
32735;BME280;19112;51.076;3.706;2023-02-13T14:50:28;103139.41;;;12.87;57.95
32735;BME280;19112;51.076;3.706;2023-02-13T14:52:59;103277.44;;;13.58;58.36
32735;BME280;19112;51.076;3.706;2023-02-13T14:55:40;103261.19;;;13.52;58.56
32735;BME280;19112;51.076;3.706;2023-02-13T14:58:35;103214.13;;;13.16;58.60
32735;BME280;19112;51.076;3.706;2023-02-13T15:01:32;103269.56;;;13.45;58.34
32735;BME280;19112;51.076;3.706;2023-02-13T15:04:39;103257.66;;;13.37;58.25
32735;BME280;19112;51.076;3.706;2023-02-13T15:07:17;103186.22;;;12.91;58.50
32735;BME280;19112;51.076;3.706;2023-02-13T15:10:00;103101.41;;;12.41;58.74
32735;BME280;19112;51.076;3.706;2023-02-13T15:12:34;102840.22;;;11.05;58.23
32735;BME280;19112;51.076;3.706;2023-02-13T15:15:01;103288.91;;;13.59;58.42
32735;BME280;19112;51.076;3.706;2023-02-13T15:17:31;103340.50;;;13.83;58.71
32735;BME280;19112;51.076;3.706;2023-02-13T15:20:25;103300.53;;;13.62;58.45
32735;BME280;19112;51.076;3.706;2023-02-13T15:22:52;103107.44;;;12.53;58.12
32735;BME280;19112;51.076;3.706;2023-02-13T15:28:03;103313.56;;;13.59;58.64
32735;BME280;19112;51.076;3.706;2023-02-13T15:30:35;103337.44;;;13.76;58.82
32735;BME280;19112;51.076;3.706;2023-02-13T15:33:11;103333.06;;;13.76;58.68
32735;BME280;19112;51.076;3.706;2023-02-13T15:35:40;103321.75;;;13.64;58.75
32735;BME280;19112;51.076;3.706;2023-02-13T15:38:30;103336.50;;;13.75;58.87
32735;BME280;19112;51.076;3.706;2023-02-13T15:41:14;103263.66;;;13.34;58.99
32735;BME280;19112;51.076;3.706;2023-02-13T15:43:48;103276.31;;;13.40;58.79
32735;BME280;19112;51.076;3.706;2023-02-13T15:46:29;103324.03;;;13.73;58.84
32735;BME280;19112;51.076;3.706;2023-02-13T15:49:05;103322.94;;;13.69;58.93
32735;BME280;19112;51.076;3.706;2023-02-13T15:51:32;103012.47;;;11.94;58.96
32735;BME280;19112;51.076;3.706;2023-02-13T15:54:06;103222.28;;;13.05;58.97